Time;durP1;ratioP1;P1;durP2;ratioP2;P2;SDS_P1;SDS_P2;PMS_P1;PMS_P2;Temp;Humidity;BMP_temperature;BMP_pressure;BME280_temperature;BME280_humidity;BME280_pressure;Samples;Min_cycle;Max_cycle;Signal;HPM_P1;HPM_P2
2021/10/23 00:00:23;;;;;;;2.22;1.73;;;8.80;99.90;;;;;;4980883;28;20034;-96
2021/10/23 00:02:49;;;;;;;6.47;2.65;;;8.80;99.90;;;;;;4980019;28;20073;-95
2021/10/23 00:05:24;;;;;;;4.78;2.22;;;8.70;99.90;;;;;;4994573;28;20475;-94
2021/10/23 00:07:53;;;;;;;2.80;1.98;;;8.70;99.90;;;;;;4984631;28;20038;-96
2021/10/23 00:10:19;;;;;;;3.58;2.65;;;8.70;99.90;;;;;;4986672;28;20026;-96
2021/10/23 00:12:47;;;;;;;6.00;3.08;;;8.60;99.90;;;;;;4985587;28;20023;-95
2021/10/23 00:15:16;;;;;;;2.58;2.00;;;8.60;99.90;;;;;;4999729;28;20035;-94
2021/10/23 00:17:42;;;;;;;7.15;3.30;;;8.60;99.90;;;;;;4984341;28;20033;-96
2021/10/23 00:20:12;;;;;;;6.30;2.90;;;8.60;99.90;;;;;;4982674;28;20027;-93
2021/10/23 00:22:41;;;;;;;8.77;4.18;;;8.60;99.90;;;;;;4983664;28;20069;-96
2021/10/23 00:25:10;;;;;;;7.50;4.05;;;8.60;99.90;;;;;;4981897;28;20097;-96
2021/10/23 00:27:37;;;;;;;7.40;3.97;;;8.60;99.90;;;;;;4981705;28;20025;-96
2021/10/23 00:30:05;;;;;;;6.18;3.40;;;8.60;99.90;;;;;;5000053;28;20030;-95
2021/10/23 00:32:30;;;;;;;7.07;3.78;;;8.50;99.90;;;;;;4981484;28;20050;-95
2021/10/23 00:35:02;;;;;;;3.17;2.13;;;8.50;99.90;;;;;;4979722;28;20022;-94
2021/10/23 00:37:28;;;;;;;5.97;3.05;;;8.50;99.90;;;;;;4992483;28;20101;-95
2021/10/23 00:40:03;;;;;;;7.57;3.58;;;8.50;99.90;;;;;;4991911;28;20031;-96
2021/10/23 00:42:30;;;;;;;4.88;3.72;;;8.50;99.90;;;;;;4972691;28;20057;-96
2021/10/23 00:44:55;;;;;;;6.60;4.05;;;8.50;99.90;;;;;;4990025;28;20018;-96
2021/10/23 00:47:21;;;;;;;14.10;5.00;;;8.40;99.90;;;;;;4989161;28;20061;-96
2021/10/23 00:49:51;;;;;;;9.32;4.80;;;8.40;99.90;;;;;;4986449;28;20022;-95
2021/10/23 00:52:21;;;;;;;13.20;5.00;;;8.50;99.90;;;;;;4977404;28;20586;-95
2021/10/23 00:54:47;;;;;;;12.18;7.18;;;8.50;99.90;;;;;;4976522;28;20031;-95
2021/10/23 00:57:13;;;;;;;5.50;3.17;;;8.40;99.90;;;;;;4974459;28;20030;-93
2021/10/23 00:59:39;;;;;;;10.43;6.00;;;8.40;99.90;;;;;;4973716;28;20022;-94
2021/10/23 01:02:05;;;;;;;8.13;5.50;;;8.40;99.90;;;;;;4974827;28;20029;-95
2021/10/23 01:04:32;;;;;;;7.72;3.78;;;8.40;99.90;;;;;;4974657;28;20661;-95
2021/10/23 01:06:58;;;;;;;6.75;4.90;;;8.40;99.90;;;;;;4975213;28;20022;-95
2021/10/23 01:09:23;;;;;;;8.65;5.00;;;8.40;99.90;;;;;;4976916;28;20118;-95
2021/10/23 01:11:50;;;;;;;11.48;6.20;;;8.40;99.90;;;;;;4976974;28;20030;-95
2021/10/23 01:14:26;;;;;;;6.38;4.32;;;8.40;99.90;;;;;;4976321;28;20088;-95
2021/10/23 01:16:53;;;;;;;10.30;5.93;;;8.30;99.90;;;;;;4976989;28;20043;-94
2021/10/23 01:19:20;;;;;;;13.05;7.53;;;8.30;99.90;;;;;;4977381;28;20027;-94
2021/10/23 01:21:48;;;;;;;12.52;7.05;;;8.40;99.90;;;;;;4977545;28;20026;-94
2021/10/23 01:24:14;;;;;;;6.35;4.10;;;8.40;99.90;;;;;;4977470;28;20053;-94
2021/10/23 01:26:40;;;;;;;17.08;7.88;;;8.40;99.90;;;;;;4977007;28;20034;-95
2021/10/23 01:29:09;;;;;;;14.63;8.95;;;8.40;99.90;;;;;;4977121;28;20361;-94
2021/10/23 01:31:35;;;;;;;9.63;5.95;;;8.40;99.90;;;;;;4977272;28;20487;-93
2021/10/23 01:34:16;;;;;;;16.48;8.90;;;8.40;99.90;;;;;;4977315;28;20030;-94
2021/10/23 01:36:44;;;;;;;17.95;8.63;;;8.40;99.90;;;;;;4977516;28;20035;-95
2021/10/23 01:39:11;;;;;;;16.58;8.45;;;8.40;99.90;;;;;;4981117;28;20214;-95
2021/10/23 01:41:38;;;;;;;16.45;9.18;;;8.40;99.90;;;;;;4981034;28;20037;-95
2021/10/23 01:44:05;;;;;;;18.15;10.20;;;8.40;99.90;;;;;;4981006;28;20077;-94
2021/10/23 01:46:30;;;;;;;13.93;7.28;;;8.40;99.90;;;;;;4977436;28;20112;-94
2021/10/23 01:48:56;;;;;;;16.77;9.85;;;8.40;99.90;;;;;;4974632;28;20145;-94
2021/10/23 01:51:22;;;;;;;17.48;11.27;;;8.40;99.90;;;;;;4976219;28;20034;-93
2021/10/23 01:53:47;;;;;;;14.88;8.05;;;8.40;99.90;;;;;;4977252;28;20066;-94
2021/10/23 01:56:13;;;;;;;14.45;8.23;;;8.40;99.90;;;;;;4977259;28;20041;-94
2021/10/23 01:58:39;;;;;;;19.25;10.02;;;8.40;99.90;;;;;;4977752;28;20077;-94
2021/10/23 02:01:04;;;;;;;21.40;9.32;;;8.40;99.90;;;;;;4977972;28;20082;-93
2021/10/23 02:03:30;;;;;;;16.50;9.52;;;8.40;99.90;;;;;;4977534;28;20035;-94
2021/10/23 02:05:56;;;;;;;17.58;9.85;;;8.40;99.90;;;;;;4977936;28;20560;-94
2021/10/23 02:08:21;;;;;;;20.27;10.98;;;8.40;99.90;;;;;;4977685;28;20050;-94
2021/10/23 02:10:47;;;;;;;13.70;8.38;;;8.40;99.90;;;;;;4977135;28;20058;-94
2021/10/23 02:13:12;;;;;;;22.52;11.60;;;8.40;99.90;;;;;;4977117;28;20029;-94
2021/10/23 02:15:38;;;;;;;12.27;7.43;;;8.50;99.90;;;;;;4976675;28;20043;-93
2021/10/23 02:18:04;;;;;;;11.02;6.45;;;8.50;99.90;;;;;;4976955;28;20027;-94
2021/10/23 02:20:33;;;;;;;22.08;10.23;;;8.50;99.90;;;;;;4978305;28;20039;-93
2021/10/23 02:22:59;;;;;;;16.60;9.88;;;8.40;99.90;;;;;;4977841;28;20050;-94
2021/10/23 02:25:25;;;;;;;16.77;8.95;;;8.50;99.90;;;;;;4976781;28;20073;-94
2021/10/23 02:27:51;;;;;;;14.52;8.80;;;8.50;99.90;;;;;;4976936;28;20047;-94
2021/10/23 02:30:16;;;;;;;18.27;10.57;;;8.50;99.90;;;;;;4976882;28;20030;-93
2021/10/23 02:32:42;;;;;;;16.38;9.40;;;8.50;99.90;;;;;;4976809;28;20030;-94
2021/10/23 02:35:08;;;;;;;15.27;10.02;;;8.50;99.90;;;;;;4976359;28;20077;-94
2021/10/23 02:37:34;;;;;;;17.83;9.52;;;8.50;99.90;;;;;;4976769;28;20126;-94
2021/10/23 02:40:01;;;;;;;13.15;8.63;;;8.50;99.90;;;;;;4976790;28;20037;-94
2021/10/23 02:42:26;;;;;;;19.85;10.13;;;8.50;99.90;;;;;;4976661;28;20030;-94
2021/10/23 02:44:52;;;;;;;15.75;8.10;;;8.50;99.90;;;;;;4975916;28;20395;-95
2021/10/23 02:47:18;;;;;;;14.60;7.90;;;8.50;99.90;;;;;;4976057;28;20106;-95
2021/10/23 02:49:43;;;;;;;13.95;7.07;;;8.50;99.90;;;;;;4976786;28;20030;-93
2021/10/23 02:52:10;;;;;;;13.73;6.20;;;8.60;99.90;;;;;;4976127;28;20041;-95
2021/10/23 02:54:35;;;;;;;9.13;5.00;;;8.60;99.90;;;;;;4976236;28;20027;-95
2021/10/23 02:57:01;;;;;;;12.43;6.40;;;8.50;99.90;;;;;;4976453;28;20034;-94
2021/10/23 02:59:27;;;;;;;14.75;7.75;;;8.60;99.90;;;;;;4976368;28;20027;-95
2021/10/23 03:01:52;;;;;;;14.18;8.45;;;8.60;99.90;;;;;;4976479;28;20027;-94
2021/10/23 03:04:18;;;;;;;8.70;5.20;;;8.60;99.90;;;;;;4976366;28;20091;-94
2021/10/23 03:06:44;;;;;;;16.73;8.23;;;8.60;99.90;;;;;;4976168;28;20174;-93
2021/10/23 03:09:13;;;;;;;16.58;9.32;;;8.60;99.90;;;;;;4976053;28;20030;-95
2021/10/23 03:11:39;;;;;;;16.67;8.77;;;8.60;99.90;;;;;;4975861;28;20118;-94
2021/10/23 03:14:05;;;;;;;14.68;8.85;;;8.60;99.90;;;;;;4975741;28;20050;-93
2021/10/23 03:16:31;;;;;;;9.10;5.65;;;8.60;99.90;;;;;;4975708;28;20440;-94
2021/10/23 03:18:56;;;;;;;15.23;9.55;;;8.60;99.90;;;;;;4976071;28;20058;-93
2021/10/23 03:21:22;;;;;;;13.75;8.00;;;8.50;99.90;;;;;;4975900;28;20420;-94
2021/10/23 03:23:48;;;;;;;11.20;7.85;;;8.60;99.90;;;;;;4975526;28;20040;-94
2021/10/23 03:26:15;;;;;;;14.55;8.57;;;8.60;99.90;;;;;;4976750;28;20432;-94
2021/10/23 03:28:41;;;;;;;8.18;5.10;;;8.60;99.90;;;;;;4976093;28;20123;-94
2021/10/23 03:31:07;;;;;;;8.20;4.97;;;8.60;99.90;;;;;;4976798;28;20035;-94
2021/10/23 03:33:33;;;;;;;12.45;6.25;;;8.60;99.90;;;;;;4976650;28;20400;-94
2021/10/23 03:35:58;;;;;;;10.88;6.30;;;8.60;99.90;;;;;;4975768;28;20121;-94
2021/10/23 03:38:24;;;;;;;8.98;6.35;;;8.70;99.90;;;;;;4975808;28;20254;-95
2021/10/23 03:40:50;;;;;;;10.07;6.40;;;8.70;99.90;;;;;;4975452;28;20026;-94
2021/10/23 03:43:15;;;;;;;10.45;7.57;;;8.70;99.90;;;;;;4975415;28;20030;-94
2021/10/23 03:45:41;;;;;;;9.95;5.97;;;8.70;99.90;;;;;;4975995;28;20053;-95
2021/10/23 03:48:07;;;;;;;11.52;7.32;;;8.70;99.90;;;;;;4978511;28;20027;-94
2021/10/23 03:50:33;;;;;;;12.45;7.07;;;8.70;99.90;;;;;;4975303;28;20492;-94
2021/10/23 03:52:59;;;;;;;6.45;4.68;;;8.70;99.90;;;;;;4979667;28;20022;-95
2021/10/23 03:55:25;;;;;;;7.57;5.78;;;8.60;99.90;;;;;;4980890;28;20543;-94
2021/10/23 03:57:50;;;;;;;8.73;4.72;;;8.70;99.90;;;;;;4982947;28;20035;-94
2021/10/23 04:00:16;;;;;;;10.63;4.68;;;8.70;99.90;;;;;;4984409;28;20475;-94
2021/10/23 04:02:42;;;;;;;7.50;4.10;;;8.70;99.90;;;;;;4979951;28;20479;-94
2021/10/23 04:05:09;;;;;;;7.93;5.38;;;8.70;99.90;;;;;;4978731;28;20028;-95
2021/10/23 04:07:34;;;;;;;10.10;5.50;;;8.70;99.90;;;;;;4979019;28;20400;-94
2021/10/23 04:10:02;;;;;;;11.90;5.85;;;8.70;99.90;;;;;;4978601;28;20034;-93
2021/10/23 04:12:27;;;;;;;5.03;3.55;;;8.70;99.90;;;;;;4978027;28;20030;-94
2021/10/23 04:14:54;;;;;;;11.52;5.75;;;8.70;99.90;;;;;;4977750;28;20056;-93
2021/10/23 04:17:20;;;;;;;10.27;5.43;;;8.70;99.90;;;;;;4977820;28;20034;-93
2021/10/23 04:19:45;;;;;;;9.82;5.15;;;8.70;99.90;;;;;;4978113;28;20045;-94
2021/10/23 04:22:12;;;;;;;10.80;5.45;;;8.70;99.90;;;;;;4977911;28;20034;-96
2021/10/23 04:24:38;;;;;;;9.32;6.38;;;8.70;99.90;;;;;;4977931;28;20077;-96
2021/10/23 04:27:04;;;;;;;13.00;6.80;;;8.70;99.90;;;;;;4978291;28;20121;-94
2021/10/23 04:29:31;;;;;;;8.10;6.07;;;8.70;99.90;;;;;;4979651;28;20165;-95
2021/10/23 04:31:57;;;;;;;7.22;4.50;;;8.70;99.90;;;;;;4977951;28;20026;-95
2021/10/23 04:34:23;;;;;;;11.65;6.53;;;8.70;99.90;;;;;;4976560;28;20034;-94
2021/10/23 04:36:49;;;;;;;7.53;4.63;;;8.70;99.90;;;;;;4977733;28;20061;-94
2021/10/23 04:39:15;;;;;;;8.85;4.90;;;8.70;99.90;;;;;;4977709;28;20030;-95
2021/10/23 04:41:41;;;;;;;8.40;4.07;;;8.70;99.90;;;;;;4977753;28;20058;-94
2021/10/23 04:44:07;;;;;;;7.07;3.97;;;8.70;99.90;;;;;;4977851;28;20050;-95
2021/10/23 04:46:33;;;;;;;7.43;4.70;;;8.70;99.90;;;;;;4977357;28;20622;-95
2021/10/23 04:48:59;;;;;;;5.40;4.05;;;8.70;99.90;;;;;;4978108;28;20109;-94
2021/10/23 04:51:25;;;;;;;5.00;3.95;;;8.70;99.90;;;;;;4977777;28;20038;-94
2021/10/23 04:53:50;;;;;;;6.18;4.50;;;8.70;99.90;;;;;;4978135;28;20030;-96
2021/10/23 04:56:17;;;;;;;6.10;4.00;;;8.70;99.90;;;;;;4977747;28;20218;-95
2021/10/23 04:58:43;;;;;;;6.78;4.82;;;8.70;99.90;;;;;;4977819;28;20085;-95
2021/10/23 05:01:09;;;;;;;5.03;2.83;;;8.70;99.90;;;;;;4978055;28;20030;-94
2021/10/23 05:03:34;;;;;;;9.35;3.33;;;8.70;99.90;;;;;;4977693;28;20105;-95
2021/10/23 05:06:00;;;;;;;5.50;2.65;;;8.70;99.90;;;;;;4977702;28;20037;-95
2021/10/23 05:08:26;;;;;;;5.32;2.80;;;8.70;99.90;;;;;;4977868;28;20054;-95
2021/10/23 05:10:51;;;;;;;3.92;2.30;;;8.70;99.90;;;;;;4977523;28;20076;-94
2021/10/23 05:13:17;;;;;;;5.57;2.28;;;8.70;99.90;;;;;;4981344;28;20090;-94
2021/10/23 05:15:43;;;;;;;4.10;1.75;;;8.70;99.90;;;;;;4965286;28;20499;-94
2021/10/23 05:18:09;;;;;;;4.93;1.60;;;8.70;99.90;;;;;;4981356;28;20169;-94
2021/10/23 05:20:34;;;;;;;4.60;1.48;;;8.70;99.90;;;;;;4981418;28;20031;-95
2021/10/23 05:23:00;;;;;;;3.28;1.85;;;8.70;99.90;;;;;;4981705;28;20026;-94
2021/10/23 05:25:27;;;;;;;4.22;1.73;;;8.70;99.90;;;;;;4981587;28;20022;-95
2021/10/23 05:27:53;;;;;;;5.65;1.67;;;8.70;99.90;;;;;;4998793;28;20027;-95
2021/10/23 05:30:19;;;;;;;6.70;1.17;;;8.70;99.90;;;;;;4981797;28;20037;-94
2021/10/23 05:32:44;;;;;;;3.92;1.73;;;8.70;99.90;;;;;;4981250;28;20041;-95
2021/10/23 05:35:10;;;;;;;2.40;1.65;;;8.60;99.90;;;;;;4980924;28;20030;-95
2021/10/23 05:37:36;;;;;;;6.05;1.20;;;8.60;99.90;;;;;;4982109;28;20081;-94
2021/10/23 05:40:01;;;;;;;5.10;1.40;;;8.60;99.90;;;;;;4984369;28;20026;-95
2021/10/23 05:42:27;;;;;;;3.45;1.30;;;8.60;99.90;;;;;;4981763;28;20034;-94
2021/10/23 05:44:53;;;;;;;3.55;1.00;;;8.60;99.90;;;;;;4998439;28;20106;-94
2021/10/23 05:47:18;;;;;;;3.15;1.20;;;8.60;99.90;;;;;;4980834;28;20471;-94
2021/10/23 05:49:44;;;;;;;2.85;1.20;;;8.60;99.90;;;;;;4980943;28;20039;-94
2021/10/23 05:52:10;;;;;;;1.90;1.20;;;8.60;99.90;;;;;;4977680;28;20030;-94
2021/10/23 05:54:39;;;;;;;2.25;1.20;;;8.60;99.90;;;;;;4980930;28;20030;-94
2021/10/23 05:57:09;;;;;;;1.38;1.20;;;8.50;99.90;;;;;;4981082;28;20038;-95
2021/10/23 05:59:37;;;;;;;3.50;1.40;;;8.50;99.90;;;;;;4981015;28;20027;-94
2021/10/23 06:02:23;;;;;;;4.00;1.73;;;8.50;99.90;;;;;;4980920;28;20027;-94
2021/10/23 06:04:53;;;;;;;2.50;0.98;;;8.50;99.90;;;;;;4981661;28;20094;-94
2021/10/23 06:07:20;;;;;;;2.30;1.42;;;8.50;99.90;;;;;;4981144;28;20034;-94
2021/10/23 06:09:46;;;;;;;1.50;1.08;;;8.40;99.90;;;;;;4978911;28;20022;-94
2021/10/23 06:12:12;;;;;;;1.63;1.10;;;8.40;99.90;;;;;;4978892;28;20030;-94
2021/10/23 06:14:38;;;;;;;5.90;1.40;;;8.40;99.90;;;;;;4978658;28;20669;-95
2021/10/23 06:17:07;;;;;;;1.42;1.00;;;8.40;99.90;;;;;;4978579;28;20022;-94
2021/10/23 06:19:34;;;;;;;3.20;0.93;;;8.40;99.90;;;;;;4978393;28;20065;-93
2021/10/23 06:22:00;;;;;;;3.00;1.30;;;8.40;99.90;;;;;;4979606;28;20033;-95
2021/10/23 06:24:26;;;;;;;1.83;0.90;;;8.30;99.90;;;;;;4978106;28;20028;-91
2021/10/23 06:26:52;;;;;;;1.63;1.15;;;8.40;99.90;;;;;;4978742;28;20022;-93
2021/10/23 06:29:18;;;;;;;4.55;1.10;;;8.30;99.90;;;;;;4978961;28;20022;-94
2021/10/23 06:31:44;;;;;;;2.85;1.20;;;8.30;99.90;;;;;;4978861;28;20407;-96
2021/10/23 06:34:10;;;;;;;4.72;1.10;;;8.30;99.90;;;;;;4978682;28;20446;-93
2021/10/23 06:36:35;;;;;;;0.95;0.90;;;8.30;99.90;;;;;;4978247;28;20125;-95
2021/10/23 06:39:01;;;;;;;2.28;0.77;;;8.20;99.90;;;;;;4978417;28;20529;-92
2021/10/23 06:41:27;;;;;;;6.18;0.80;;;8.20;99.90;;;;;;4978368;28;20496;-91
2021/10/23 06:43:53;;;;;;;0.75;0.70;;;8.20;99.90;;;;;;4995560;28;20019;-94
2021/10/23 06:46:20;;;;;;;3.15;0.90;;;8.20;99.90;;;;;;4978124;28;20524;-95
2021/10/23 06:48:46;;;;;;;1.73;1.10;;;8.20;99.90;;;;;;4978051;28;20027;-94
2021/10/23 06:51:11;;;;;;;1.55;0.75;;;8.20;99.90;;;;;;4979078;28;20029;-94
2021/10/23 06:53:37;;;;;;;5.80;0.75;;;8.20;99.90;;;;;;4978616;28;20037;-91
2021/10/23 06:56:03;;;;;;;3.03;0.70;;;8.20;99.90;;;;;;4979199;28;20046;-93
2021/10/23 06:58:29;;;;;;;4.00;0.73;;;8.20;99.90;;;;;;4979105;28;20022;-94
2021/10/23 07:00:54;;;;;;;1.48;0.88;;;8.20;99.90;;;;;;4980023;28;20027;-93
2021/10/23 07:03:20;;;;;;;1.17;0.65;;;8.20;99.90;;;;;;4980967;28;20030;-93
2021/10/23 07:05:47;;;;;;;2.90;0.60;;;8.20;99.90;;;;;;4980461;28;20089;-93
2021/10/23 07:08:13;;;;;;;0.80;0.63;;;8.20;99.90;;;;;;4982864;28;20038;-94
2021/10/23 07:10:39;;;;;;;1.92;0.70;;;8.20;99.90;;;;;;4986266;28;20037;-93
2021/10/23 07:13:05;;;;;;;3.03;0.70;;;8.30;99.90;;;;;;4987118;28;20090;-94
2021/10/23 07:15:30;;;;;;;3.33;0.57;;;8.30;99.90;;;;;;4983377;28;20116;-93
2021/10/23 07:17:57;;;;;;;1.17;0.70;;;8.30;99.90;;;;;;4981026;28;20026;-92
2021/10/23 07:20:25;;;;;;;4.75;0.70;;;8.30;99.90;;;;;;4985351;28;20026;-91
2021/10/23 07:22:53;;;;;;;4.03;0.80;;;8.40;99.90;;;;;;4991323;28;20030;-92
2021/10/23 07:25:51;;;;;;;3.17;0.85;;;8.40;99.90;;;;;;5000534;28;20018;-95
2021/10/23 07:28:29;;;;;;;3.65;0.80;;;8.40;99.90;;;;;;5384147;23;20081;-96
2021/10/23 07:38:43;;;;;;;2.75;0.90;;;8.50;99.90;;;;;;5047176;23;20061;-95
2021/10/23 07:41:09;;;;;;;3.45;1.30;;;8.50;99.90;;;;;;4991975;28;20307;-94
2021/10/23 07:43:35;;;;;;;1.15;0.60;;;8.60;99.90;;;;;;5011739;28;20085;-94
2021/10/23 07:46:01;;;;;;;0.93;0.60;;;8.60;99.90;;;;;;5009372;28;20086;-94
2021/10/23 07:48:27;;;;;;;5.93;0.90;;;8.60;99.90;;;;;;5003696;28;20554;-95
2021/10/23 07:53:30;;;;;;;5.68;0.90;;;8.70;99.90;;;;;;5015757;28;20057;-95
2021/10/23 07:56:01;;;;;;;3.38;1.00;;;8.70;99.90;;;;;;5007410;28;20054;-95
2021/10/23 07:58:28;;;;;;;2.30;0.73;;;8.80;99.90;;;;;;5010854;28;20026;-95
2021/10/23 08:00:54;;;;;;;4.18;0.82;;;8.80;99.90;;;;;;4988687;28;20106;-95
2021/10/23 08:03:22;;;;;;;3.67;1.20;;;8.90;99.90;;;;;;5005251;28;20092;-96
2021/10/23 08:37:29;;;;;;;3.30;1.35;;;9.30;99.90;;;;;;5030008;23;20326;-96
2021/10/23 08:39:55;;;;;;;3.53;1.00;;;9.40;99.90;;;;;;5000694;28;20046;-94
2021/10/23 08:42:21;;;;;;;1.42;0.90;;;9.40;99.90;;;;;;4983846;28;20094;-96
2021/10/23 08:44:47;;;;;;;3.20;1.17;;;9.40;99.90;;;;;;4983608;28;20055;-94
2021/10/23 09:04:14;;;;;;;0.82;0.50;;;9.80;99.90;;;;;;5107524;23;20079;-96
2021/10/23 09:06:40;;;;;;;1.73;0.60;;;9.90;99.90;;;;;;4981141;28;20030;-95
2021/10/23 09:09:12;;;;;;;1.50;0.80;;;10.00;99.90;;;;;;4981518;28;20075;-96
2021/10/23 09:11:48;;;;;;;1.92;1.08;;;10.00;99.90;;;;;;4977759;28;20039;-96
2021/10/23 09:14:24;;;;;;;1.33;1.02;;;10.00;99.90;;;;;;4986596;23;20061;-94
2021/10/23 09:17:06;;;;;;;2.05;1.02;;;10.10;99.90;;;;;;4971802;28;20058;-95
2021/10/23 09:19:47;;;;;;;3.33;1.30;;;10.20;99.90;;;;;;4993109;28;20027;-94
2021/10/23 09:22:34;;;;;;;;;;;10.30;99.90;;;;;;4956511;28;20034;-96
2021/10/23 09:25:23;;;;;;;4.43;1.70;;;10.30;99.90;;;;;;4968230;28;19917;-96
2021/10/23 09:28:37;;;;;;;7.63;1.52;;;10.40;99.90;;;;;;4996017;28;20043;-96
2021/10/23 09:54:24;;;;;;;4.82;2.03;;;10.50;99.90;;;;;;5413325;23;21891;-96
2021/10/23 09:56:51;;;;;;;5.10;2.03;;;10.60;99.90;;;;;;4952078;28;20051;-96
2021/10/23 10:02:01;;;;;;;2.83;1.63;;;10.70;99.90;;;;;;4997159;28;20050;-95
2021/10/23 10:04:29;;;;;;;2.55;1.80;;;10.70;99.90;;;;;;5024663;23;20054;-96
2021/10/23 10:06:56;;;;;;;2.92;1.80;;;10.90;99.90;;;;;;5032577;23;20090;-95
2021/10/23 10:09:25;;;;;;;4.15;1.80;;;11.20;99.90;;;;;;4998547;28;20042;-94
2021/10/23 10:14:36;;;;;;;6.22;1.80;;;11.60;99.90;;;;;;5136779;23;20075;-96
2021/10/23 10:26:13;;;;;;;6.13;1.92;;;11.90;99.90;;;;;;1021085;23;20548;-94
2021/10/23 10:29:24;;;;;;;9.55;1.95;;;11.80;99.90;;;;;;4973586;28;20051;-96
2021/10/23 11:11:06;;;;;;;3.17;1.52;;;11.90;99.90;;;;;;4953719;29;20091;-95
2021/10/23 11:13:43;;;;;;;4.88;1.80;;;11.90;99.90;;;;;;4939750;29;20031;-96
2021/10/23 11:16:27;;;;;;;3.67;1.63;;;11.90;99.90;;;;;;4954325;29;20032;-95
2021/10/23 11:19:03;;;;;;;4.88;1.60;;;11.80;99.90;;;;;;4953828;29;20043;-96
2021/10/23 11:21:32;;;;;;;6.68;1.30;;;11.90;99.90;;;;;;4967956;29;20050;-96
2021/10/23 11:24:00;;;;;;;2.67;1.50;;;11.90;99.90;;;;;;4957308;29;20035;-93
2021/10/23 11:27:29;;;;;;;2.83;1.60;;;11.90;99.90;;;;;;4975455;28;20023;-96
2021/10/23 11:32:52;;;;;;;2.97;1.15;;;11.90;99.90;;;;;;5493599;23;20062;-96
2021/10/23 11:35:26;;;;;;;4.88;1.42;;;12.00;99.90;;;;;;4993396;28;20043;-94
2021/10/23 11:38:19;;;;;;;5.80;2.30;;;12.00;99.90;;;;;;5239913;23;20059;-95
2021/10/23 11:40:45;;;;;;;1.92;1.10;;;12.00;99.90;;;;;;4976715;28;20019;-96
2021/10/23 11:43:16;;;;;;;3.55;1.10;;;12.00;99.90;;;;;;4973799;29;20014;-96
2021/10/23 11:45:42;;;;;;;4.53;1.10;;;12.00;99.90;;;;;;5048231;23;20086;-96
2021/10/23 11:48:15;;;;;;;2.75;1.20;;;12.10;99.90;;;;;;4995701;28;20031;-96
2021/10/23 11:50:43;;;;;;;2.28;1.20;;;12.10;99.90;;;;;;4995320;28;20021;-96
2021/10/23 11:58:31;;;;;;;6.22;1.35;;;12.10;99.90;;;;;;5967015;23;21323;-95
2021/10/23 12:01:05;;;;;;;3.30;1.15;;;12.10;99.90;;;;;;4978764;28;20047;-94
2021/10/23 12:03:38;;;;;;;4.72;1.63;;;12.10;99.90;;;;;;4977749;28;20018;-96
2021/10/23 12:06:36;;;;;;;4.55;1.77;;;12.10;99.90;;;;;;4978729;28;20031;-95
2021/10/23 12:09:19;;;;;;;2.88;1.40;;;12.10;99.90;;;;;;4968981;29;20023;-96
2021/10/23 12:12:00;;;;;;;5.05;2.08;;;12.20;99.90;;;;;;4976083;29;20031;-95
2021/10/23 12:22:46;;;;;;;5.13;2.17;;;12.20;99.90;;;;;;5766336;23;20795;-96
2021/10/23 12:25:13;;;;;;;5.60;2.00;;;12.20;99.90;;;;;;4991310;28;20034;-95
2021/10/23 12:27:42;;;;;;;1.48;0.90;;;12.10;99.90;;;;;;4975331;28;20038;-95
2021/10/23 12:30:13;;;;;;;6.15;2.33;;;12.10;99.90;;;;;;4993558;28;20022;-96
2021/10/23 12:32:43;;;;;;;5.28;2.05;;;12.10;99.90;;;;;;4991231;28;20035;-95
2021/10/23 12:35:25;;;;;;;2.50;1.47;;;12.10;99.90;;;;;;4994357;28;20035;-95
2021/10/23 12:37:58;;;;;;;4.68;1.42;;;12.10;99.90;;;;;;4993276;28;20625;-96
2021/10/23 12:40:31;;;;;;;3.45;1.00;;;12.10;99.90;;;;;;4995640;28;20039;-96
2021/10/23 12:43:05;;;;;;;2.70;1.10;;;12.10;99.90;;;;;;5201402;23;20118;-95
2021/10/23 12:45:42;;;;;;;1.80;1.30;;;12.20;99.90;;;;;;4974645;28;20023;-96
2021/10/23 12:48:10;;;;;;;3.58;1.40;;;12.20;99.90;;;;;;4974285;29;20131;-95
2021/10/23 12:50:37;;;;;;;3.47;1.80;;;12.30;99.90;;;;;;4974656;28;20063;-95
2021/10/23 12:53:03;;;;;;;4.65;1.35;;;12.30;99.90;;;;;;4974611;29;20042;-95
2021/10/23 12:55:30;;;;;;;2.28;1.45;;;12.30;99.90;;;;;;4971071;29;20046;-96
2021/10/23 12:58:01;;;;;;;4.38;1.30;;;12.20;99.90;;;;;;4974835;28;20038;-96
2021/10/23 13:00:27;;;;;;;2.67;1.58;;;12.20;99.90;;;;;;4990199;28;20035;-96
2021/10/23 13:02:54;;;;;;;4.15;1.75;;;12.10;99.90;;;;;;4974073;29;20023;-95
2021/10/23 13:05:23;;;;;;;2.72;1.60;;;12.00;99.90;;;;;;4976598;29;20031;-96
2021/10/23 13:07:51;;;;;;;3.63;2.00;;;12.00;99.90;;;;;;4992471;28;20020;-94
2021/10/23 13:10:19;;;;;;;4.50;1.45;;;12.00;99.90;;;;;;4975880;29;20024;-95
2021/10/23 13:15:28;;;;;;;5.60;2.58;;;11.90;99.90;;;;;;5478612;23;20043;-95
2021/10/23 13:17:55;;;;;;;2.90;2.53;;;11.90;99.90;;;;;;4989041;28;20054;-96
2021/10/23 13:20:21;;;;;;;1.90;1.38;;;11.90;99.90;;;;;;4978645;28;20054;-96
2021/10/23 13:22:47;;;;;;;2.38;1.70;;;11.90;99.90;;;;;;4976855;28;20027;-95
2021/10/23 13:25:14;;;;;;;2.75;1.30;;;11.90;99.90;;;;;;4974783;28;20025;-95
2021/10/23 13:27:44;;;;;;;3.88;1.02;;;11.90;99.90;;;;;;4978464;28;20031;-95
2021/10/23 13:30:13;;;;;;;1.42;1.33;;;11.90;99.90;;;;;;4990110;28;20062;-95
2021/10/23 13:32:48;;;;;;;1.38;0.73;;;11.90;99.90;;;;;;4977408;28;20023;-96
2021/10/23 13:35:15;;;;;;;2.35;0.70;;;11.80;99.90;;;;;;4964573;28;20099;-96
2021/10/23 13:37:41;;;;;;;1.50;0.80;;;11.80;99.90;;;;;;4982054;28;20062;-96
2021/10/23 13:42:47;;;;;;;2.10;0.80;;;11.90;99.90;;;;;;5019779;23;20064;-96
2021/10/23 13:50:27;;;;;;;1.27;0.60;;;11.80;99.90;;;;;;4971658;28;20047;-96
2021/10/23 13:52:53;;;;;;;2.00;0.63;;;11.80;99.90;;;;;;4962703;29;20035;-95
2021/10/23 13:55:19;;;;;;;1.45;0.63;;;11.80;99.90;;;;;;4961753;29;20035;-96
2021/10/23 13:57:47;;;;;;;3.08;0.63;;;11.80;99.90;;;;;;4963667;29;20477;-96
2021/10/23 14:00:16;;;;;;;1.75;0.55;;;11.80;99.90;;;;;;4981052;28;20027;-96
2021/10/23 14:02:43;;;;;;;1.17;0.70;;;11.70;99.90;;;;;;5159636;23;20055;-94
2021/10/23 14:05:09;;;;;;;1.27;0.50;;;11.70;99.90;;;;;;4960548;29;20059;-94
2021/10/23 14:07:37;;;;;;;1.92;0.57;;;11.70;99.90;;;;;;4959430;29;20031;-94
2021/10/23 14:10:04;;;;;;;4.50;0.60;;;11.70;99.90;;;;;;4959672;29;20034;-96
2021/10/23 14:12:30;;;;;;;3.90;0.95;;;11.70;99.90;;;;;;4979419;29;20016;-96
2021/10/23 14:14:55;;;;;;;5.40;0.70;;;11.70;99.90;;;;;;4965623;28;20095;-95
2021/10/23 14:17:23;;;;;;;0.95;0.60;;;11.60;99.90;;;;;;4946533;29;20107;-94
2021/10/23 14:19:48;;;;;;;2.28;0.70;;;11.60;99.90;;;;;;4959184;29;20029;-95
2021/10/23 14:22:17;;;;;;;1.10;0.60;;;11.60;99.90;;;;;;4958568;29;20097;-95
2021/10/23 14:24:46;;;;;;;1.90;1.20;;;11.60;99.90;;;;;;4960059;29;20042;-96
2021/10/23 14:30:38;;;;;;;2.17;0.82;;;11.50;99.90;;;;;;5037579;23;20051;-96
2021/10/23 14:33:07;;;;;;;1.42;0.65;;;11.50;99.90;;;;;;4976733;28;20073;-96
2021/10/23 14:35:35;;;;;;;4.28;0.82;;;11.50;99.90;;;;;;4975401;28;20058;-95
2021/10/23 14:38:02;;;;;;;1.25;0.50;;;11.40;99.90;;;;;;4973075;28;20110;-95
2021/10/23 14:40:28;;;;;;;2.80;0.70;;;11.40;99.90;;;;;;4976578;28;20573;-96
2021/10/23 14:42:55;;;;;;;1.33;0.90;;;11.40;99.90;;;;;;4957882;29;20067;-96
2021/10/23 14:45:27;;;;;;;2.05;0.77;;;11.40;99.90;;;;;;4975516;28;20035;-94
2021/10/23 14:47:57;;;;;;;2.67;0.65;;;11.40;99.90;;;;;;4972285;29;20062;-94
2021/10/23 14:50:25;;;;;;;2.03;0.70;;;11.40;99.90;;;;;;4974100;28;20027;-95
2021/10/23 14:52:55;;;;;;;4.60;0.80;;;11.40;99.90;;;;;;4971614;28;20023;-95
2021/10/23 14:55:23;;;;;;;2.25;0.60;;;11.40;99.90;;;;;;4974734;28;20039;-95
2021/10/23 14:57:53;;;;;;;2.70;1.00;;;11.30;99.90;;;;;;4970243;28;20031;-96
2021/10/23 15:00:21;;;;;;;1.52;0.75;;;11.30;99.90;;;;;;4975083;29;20045;-95
2021/10/23 15:02:47;;;;;;;2.33;0.80;;;11.30;99.90;;;;;;4976369;28;20023;-95
2021/10/23 15:05:14;;;;;;;4.45;0.90;;;11.30;99.90;;;;;;4976451;28;20038;-95
2021/10/23 15:07:40;;;;;;;8.88;0.95;;;11.30;99.80;;;;;;4976289;28;20051;-95
2021/10/23 15:10:32;;;;;;;2.50;1.00;;;11.30;99.90;;;;;;4977572;28;20038;-94
2021/10/23 15:13:08;;;;;;;1.90;1.00;;;11.30;99.90;;;;;;4972169;28;20027;-95
2021/10/23 15:15:43;;;;;;;3.60;0.90;;;11.30;99.90;;;;;;4961342;29;20090;-95
2021/10/23 15:18:15;;;;;;;1.98;0.95;;;11.30;99.90;;;;;;4958269;28;20035;-95
2021/10/23 15:20:41;;;;;;;1.58;0.85;;;11.30;99.90;;;;;;4974363;29;20007;-96
2021/10/23 15:23:08;;;;;;;2.40;1.10;;;11.30;99.90;;;;;;4975709;28;20299;-94
2021/10/23 15:25:35;;;;;;;1.67;0.90;;;11.30;99.90;;;;;;4975310;28;20034;-95
2021/10/23 15:28:03;;;;;;;3.78;1.00;;;11.20;99.90;;;;;;4970451;28;20031;-96
2021/10/23 15:30:34;;;;;;;3.55;1.02;;;11.20;99.90;;;;;;4972947;28;20059;-96
2021/10/23 15:33:01;;;;;;;3.40;1.25;;;11.20;99.90;;;;;;4958795;29;20046;-94
2021/10/23 15:35:31;;;;;;;4.90;1.60;;;11.20;99.90;;;;;;4971897;28;20043;-95
2021/10/23 15:37:59;;;;;;;4.30;1.40;;;11.20;99.90;;;;;;4953162;29;20130;-96
2021/10/23 15:43:20;;;;;;;3.15;1.10;;;11.10;99.90;;;;;;4974996;29;20016;-96
2021/10/23 15:45:50;;;;;;;2.90;1.40;;;11.10;99.90;;;;;;4957406;29;20043;-94